createdAt,value
2023-03-07T00:01:00.018Z,47.38
2023-03-07T00:03:27.942Z,47.58
2023-03-07T00:06:07.140Z,49.20
2023-03-07T00:08:34.132Z,47.28
2023-03-07T00:11:04.560Z,47.40
2023-03-07T00:13:31.883Z,48.78
2023-03-07T00:16:05.870Z,38.97
2023-03-07T00:18:32.940Z,44.15
2023-03-07T00:21:00.105Z,43.33
2023-03-07T00:23:26.605Z,45.55
2023-03-07T00:26:04.249Z,47.35
2023-03-07T00:28:31.221Z,43.17
2023-03-07T00:31:02.449Z,42.10
2023-03-07T00:33:29.244Z,43.58
2023-03-07T00:35:59.461Z,47.17
2023-03-07T00:38:26.248Z,44.35
2023-03-07T00:40:56.285Z,44.90
2023-03-07T00:43:22.806Z,41.20
2023-03-07T00:45:49.334Z,41.05
2023-03-07T00:48:15.978Z,44.92
2023-03-07T00:50:42.604Z,48.00
2023-03-07T00:53:09.081Z,42.75
2023-03-07T00:55:35.921Z,45.65
2023-03-07T00:58:02.651Z,46.85
2023-03-07T01:00:29.276Z,44.20
2023-03-07T01:02:58.161Z,47.83
2023-03-07T01:05:24.736Z,46.50
2023-03-07T01:07:51.275Z,46.20
2023-03-07T01:10:17.867Z,48.63
2023-03-07T01:12:44.379Z,46.83
2023-03-07T01:15:12.183Z,47.78
2023-03-07T01:17:39.014Z,44.70
2023-03-07T01:20:09.740Z,45.97
2023-03-07T01:22:36.228Z,45.28
2023-03-07T01:25:04.996Z,43.15
2023-03-07T01:27:31.656Z,48.28
2023-03-07T01:29:58.320Z,46.85
2023-03-07T01:32:24.845Z,42.72
2023-03-07T01:34:51.407Z,47.55
2023-03-07T01:37:19.101Z,45.85
2023-03-07T01:39:46.284Z,46.28
2023-03-07T01:42:16.436Z,48.80
2023-03-07T01:45:01.683Z,44.85
2023-03-07T01:47:38.181Z,45.58
2023-03-07T01:50:10.509Z,43.45
2023-03-07T01:52:42.842Z,52.78
2023-03-07T01:55:12.404Z,47.63
2023-03-07T01:57:40.957Z,50.55
2023-03-07T02:00:10.810Z,48.88
2023-03-07T02:02:42.682Z,50.50
2023-03-07T02:05:13.121Z,53.72
2023-03-07T02:07:46.298Z,46.17
2023-03-07T02:10:15.848Z,46.75
2023-03-07T02:12:42.595Z,45.72
2023-03-07T02:15:10.374Z,43.33
2023-03-07T02:17:37.112Z,44.95
2023-03-07T02:20:13.135Z,44.10
2023-03-07T02:22:40.802Z,44.10
2023-03-07T02:25:22.495Z,46.97
2023-03-07T02:27:50.173Z,43.13
2023-03-07T02:30:16.978Z,46.85
2023-03-07T02:32:44.689Z,47.13
2023-03-07T02:35:15.561Z,45.58
2023-03-07T02:37:45.755Z,42.42
2023-03-07T02:40:15.945Z,36.70
2023-03-07T02:42:43.192Z,40.65
2023-03-07T02:45:14.713Z,43.67
2023-03-07T02:47:43.034Z,36.42
2023-03-07T02:50:11.828Z,39.85
2023-03-07T02:52:41.414Z,37.60
2023-03-07T02:55:10.707Z,37.33
2023-03-07T02:57:41.826Z,36.75
2023-03-07T03:00:10.471Z,37.40
2023-03-07T03:02:37.020Z,32.80
2023-03-07T03:05:04.472Z,39.22
2023-03-07T03:07:31.032Z,38.58
2023-03-07T03:10:00.102Z,31.63
2023-03-07T03:12:26.807Z,34.78
2023-03-07T03:14:53.322Z,36.05
2023-03-07T03:17:19.766Z,33.10
2023-03-07T03:19:46.480Z,32.00
2023-03-07T03:22:12.928Z,35.08
2023-03-07T03:24:43.768Z,31.98
2023-03-07T03:27:13.866Z,32.03
2023-03-07T03:29:43.628Z,34.83
2023-03-07T03:32:11.113Z,33.60
2023-03-07T03:34:38.196Z,32.17
2023-03-07T03:37:04.940Z,31.48
2023-03-07T03:39:31.796Z,37.33
2023-03-07T03:41:59.359Z,32.63
2023-03-07T03:44:26.961Z,31.40
2023-03-07T03:46:55.687Z,32.45
2023-03-07T03:49:23.528Z,34.28
2023-03-07T03:51:52.193Z,30.15
2023-03-07T03:54:18.698Z,30.15
2023-03-07T03:56:45.242Z,32.15
2023-03-07T03:59:11.761Z,29.95
2023-03-07T04:01:38.246Z,29.55
2023-03-07T04:04:07.443Z,35.22
2023-03-07T04:06:35.210Z,34.22
2023-03-07T04:09:03.532Z,33.63
2023-03-07T04:11:31.894Z,29.75
2023-03-07T04:13:59.404Z,30.85
2023-03-07T04:16:26.030Z,28.52
2023-03-07T04:18:52.888Z,33.10
2023-03-07T04:21:20.183Z,34.33
2023-03-07T04:23:49.645Z,28.25
2023-03-07T04:26:16.702Z,33.47
2023-03-07T04:28:46.227Z,30.30
2023-03-07T04:31:17.280Z,29.38
2023-03-07T04:33:44.780Z,32.13
2023-03-07T04:36:12.255Z,31.08
2023-03-07T04:38:39.237Z,32.90
2023-03-07T04:41:10.900Z,31.23
2023-03-07T04:43:37.580Z,30.35
2023-03-07T04:46:04.274Z,34.35
2023-03-07T04:48:30.893Z,27.33
2023-03-07T04:50:58.105Z,33.88
2023-03-07T04:53:24.726Z,31.83
2023-03-07T04:55:51.366Z,30.58
2023-03-07T04:58:17.860Z,29.27
2023-03-07T05:00:45.378Z,32.30
2023-03-07T05:03:12.716Z,31.38
2023-03-07T05:05:39.295Z,27.95
2023-03-07T05:08:05.929Z,29.15
2023-03-07T05:10:33.379Z,29.65
2023-03-07T05:13:01.713Z,32.80
2023-03-07T05:15:28.237Z,29.25
2023-03-07T05:17:54.970Z,30.50
2023-03-07T05:20:22.020Z,30.13
2023-03-07T05:22:48.706Z,31.88
2023-03-07T05:25:15.469Z,29.65
2023-03-07T05:27:42.957Z,33.33
2023-03-07T05:30:10.416Z,28.30
2023-03-07T05:32:37.107Z,30.83
2023-03-07T05:35:04.193Z,28.17
2023-03-07T05:37:31.162Z,27.95
2023-03-07T05:39:58.052Z,28.70
2023-03-07T05:42:24.630Z,27.55
2023-03-07T05:44:51.314Z,27.73
2023-03-07T05:47:17.963Z,26.85
2023-03-07T05:49:45.089Z,27.70
2023-03-07T05:52:12.901Z,26.40
2023-03-07T05:54:39.382Z,26.63
2023-03-07T05:57:05.933Z,25.70
2023-03-07T05:59:32.515Z,27.05
2023-03-07T06:01:59.087Z,24.98
2023-03-07T06:04:25.629Z,29.90
2023-03-07T06:06:52.198Z,24.27
2023-03-07T06:09:18.676Z,27.05
2023-03-07T06:11:45.353Z,25.83
2023-03-07T06:14:11.826Z,26.80
2023-03-07T06:16:38.266Z,24.63
2023-03-07T06:19:04.895Z,21.65
2023-03-07T06:21:31.513Z,23.48
2023-03-07T06:23:58.353Z,22.27
2023-03-07T06:26:24.883Z,22.58
2023-03-07T06:28:53.534Z,20.70
2023-03-07T06:31:21.132Z,23.77
2023-03-07T06:33:48.274Z,21.20
2023-03-07T06:36:18.265Z,21.30
2023-03-07T06:38:47.859Z,25.77
2023-03-07T06:41:14.511Z,23.42
2023-03-07T06:43:41.350Z,20.63
2023-03-07T06:46:07.875Z,18.20
2023-03-07T06:48:38.584Z,23.75
2023-03-07T06:51:08.358Z,22.55
2023-03-07T06:53:36.018Z,25.63
2023-03-07T06:56:04.264Z,23.13
2023-03-07T06:58:32.862Z,24.98
2023-03-07T07:00:59.568Z,23.13
2023-03-07T07:03:26.286Z,22.35
2023-03-07T07:05:55.783Z,25.08
2023-03-07T07:08:22.206Z,24.52
2023-03-07T07:10:48.836Z,23.05
2023-03-07T07:13:15.953Z,22.33
2023-03-07T07:15:42.567Z,23.85
2023-03-07T07:18:11.523Z,20.73
2023-03-07T07:20:38.245Z,20.90
2023-03-07T07:23:04.867Z,19.30
2023-03-07T07:25:31.327Z,20.35
2023-03-07T07:27:57.999Z,20.10
2023-03-07T07:30:25.181Z,19.05
2023-03-07T07:32:52.251Z,18.45
2023-03-07T07:35:20.973Z,17.60
2023-03-07T07:37:47.922Z,18.00
2023-03-07T07:40:15.304Z,16.98
2023-03-07T07:42:43.471Z,16.75
2023-03-07T07:45:18.705Z,19.50
2023-03-07T07:47:47.317Z,15.50
2023-03-07T07:50:14.195Z,15.25
2023-03-07T07:52:41.697Z,17.23
2023-03-07T07:55:08.690Z,17.08
2023-03-07T07:57:35.194Z,15.00
2023-03-07T08:00:06.293Z,17.35
2023-03-07T08:02:38.981Z,12.30
2023-03-07T08:05:10.329Z,14.20
2023-03-07T08:07:37.079Z,13.85
2023-03-07T08:10:03.971Z,13.07
2023-03-07T08:12:30.428Z,12.02
2023-03-07T08:14:56.841Z,14.52
2023-03-07T08:17:23.401Z,13.13
2023-03-07T08:19:49.787Z,12.38
2023-03-07T08:22:16.902Z,12.38
2023-03-07T08:24:43.409Z,10.73
2023-03-07T08:27:09.902Z,13.77
2023-03-07T08:29:36.535Z,12.55
2023-03-07T08:32:03.015Z,12.80
2023-03-07T08:34:31.948Z,11.95
2023-03-07T08:36:58.445Z,14.18
2023-03-07T08:39:25.000Z,13.48
2023-03-07T08:41:51.515Z,13.25
2023-03-07T08:44:18.017Z,13.15
2023-03-07T08:46:44.515Z,12.93
2023-03-07T08:49:11.196Z,10.65
2023-03-07T08:51:37.813Z,14.25
2023-03-07T08:54:04.881Z,11.82
2023-03-07T08:56:31.319Z,13.80
2023-03-07T08:58:57.844Z,12.00
2023-03-07T09:01:24.329Z,13.52
2023-03-07T09:03:50.876Z,15.90
2023-03-07T09:06:18.158Z,14.30
2023-03-07T09:08:44.824Z,11.95
2023-03-07T09:11:11.334Z,13.80
2023-03-07T09:13:49.694Z,12.90
2023-03-07T09:16:18.291Z,14.73
2023-03-07T09:18:44.967Z,12.23
2023-03-07T09:21:11.392Z,12.13
2023-03-07T09:23:37.861Z,14.68
2023-03-07T09:26:06.005Z,15.23
2023-03-07T09:28:33.560Z,14.23
2023-03-07T09:31:00.362Z,14.25
2023-03-07T09:33:27.410Z,14.57
2023-03-07T09:35:53.839Z,13.25
2023-03-07T09:38:20.379Z,13.57
2023-03-07T09:40:47.571Z,13.30
2023-03-07T09:43:20.406Z,15.18
2023-03-07T09:46:07.226Z,14.20
2023-03-07T09:48:47.178Z,14.38
2023-03-07T09:51:25.165Z,13.45
2023-03-07T09:54:00.222Z,13.52
2023-03-07T09:56:31.475Z,17.88
2023-03-07T09:59:06.567Z,13.18
2023-03-07T10:01:37.850Z,12.85
2023-03-07T10:04:06.452Z,12.18
2023-03-07T10:06:40.169Z,13.70
2023-03-07T10:09:10.937Z,13.27
2023-03-07T10:11:44.726Z,14.88
2023-03-07T10:14:31.970Z,13.00
2023-03-07T10:17:20.143Z,16.63
2023-03-07T10:19:51.147Z,15.18
2023-03-07T10:22:27.285Z,15.02
2023-03-07T10:24:53.974Z,13.35
2023-03-07T10:27:22.963Z,11.07
2023-03-07T10:29:50.897Z,13.00
2023-03-07T10:32:17.491Z,13.70
2023-03-07T10:34:44.148Z,14.40
2023-03-07T10:37:10.982Z,13.90
2023-03-07T10:39:57.700Z,14.05
2023-03-07T10:42:25.425Z,12.77
2023-03-07T10:44:52.062Z,14.30
2023-03-07T10:47:22.587Z,12.63
2023-03-07T10:49:50.463Z,13.90
2023-03-07T10:52:27.788Z,13.02
2023-03-07T10:54:55.260Z,12.70
2023-03-07T10:57:27.253Z,11.55
2023-03-07T10:59:54.021Z,14.38
2023-03-07T11:02:29.250Z,13.50
2023-03-07T11:04:55.859Z,14.15
2023-03-07T11:07:30.813Z,15.13
2023-03-07T11:09:58.635Z,12.68
2023-03-07T11:12:26.780Z,15.98
2023-03-07T11:15:15.271Z,12.50
2023-03-07T11:17:41.934Z,12.23
2023-03-07T11:20:29.893Z,14.63
2023-03-07T11:23:13.564Z,12.02
2023-03-07T11:25:40.014Z,12.57
2023-03-07T11:28:24.185Z,12.20
2023-03-07T11:30:56.923Z,10.98
2023-03-07T11:33:26.710Z,11.63
2023-03-07T11:36:00.128Z,15.35
2023-03-07T11:38:45.437Z,11.40
2023-03-07T11:41:15.854Z,10.07
2023-03-07T11:43:57.722Z,11.43
2023-03-07T11:46:38.578Z,11.43
2023-03-07T11:49:05.230Z,12.57
2023-03-07T11:51:31.733Z,12.25
2023-03-07T11:54:07.080Z,12.55
2023-03-07T11:56:36.349Z,11.43
2023-03-07T11:59:02.821Z,12.35
2023-03-07T12:01:38.420Z,12.40
2023-03-07T12:04:23.166Z,10.35
2023-03-07T12:07:18.909Z,11.65
2023-03-07T12:09:45.328Z,12.23
2023-03-07T12:12:43.148Z,10.57
2023-03-07T12:15:25.530Z,10.68
2023-03-07T12:18:03.530Z,11.63
2023-03-07T12:20:29.970Z,12.45
2023-03-07T12:23:02.997Z,13.05
2023-03-07T12:25:48.455Z,11.27
2023-03-07T12:28:28.845Z,10.48
2023-03-07T12:31:07.408Z,12.10
2023-03-07T12:33:36.951Z,9.70
2023-03-07T12:36:08.712Z,12.32
2023-03-07T12:38:36.716Z,10.82
2023-03-07T12:41:22.168Z,11.20
2023-03-07T12:43:52.760Z,11.57
2023-03-07T12:46:31.514Z,11.73
2023-03-07T12:49:10.320Z,10.35
2023-03-07T12:51:39.104Z,9.65
2023-03-07T12:54:14.634Z,10.38
2023-03-07T12:57:00.734Z,13.18
2023-03-07T13:02:00.185Z,11.38
2023-03-07T13:04:38.097Z,11.23
2023-03-07T13:07:10.821Z,12.00
2023-03-07T13:09:39.274Z,10.27
2023-03-07T13:12:23.227Z,12.00
2023-03-07T13:14:57.162Z,12.27
2023-03-07T13:17:35.463Z,11.98
2023-03-07T13:20:04.982Z,9.80
2023-03-07T13:22:31.467Z,11.57
2023-03-07T13:25:00.693Z,12.55
2023-03-07T13:27:27.362Z,13.90
2023-03-07T13:30:12.204Z,11.93
2023-03-07T13:32:50.841Z,10.40
2023-03-07T13:35:23.206Z,9.80
2023-03-07T13:37:49.940Z,12.35
2023-03-07T13:40:34.977Z,10.23
2023-03-07T13:43:02.341Z,11.67
2023-03-07T13:45:37.853Z,12.90
2023-03-07T13:50:36.688Z,10.57
2023-03-07T13:53:08.268Z,16.15
2023-03-07T13:55:39.354Z,10.95
2023-03-07T13:58:13.752Z,14.48
2023-03-07T14:00:50.941Z,12.32
2023-03-07T14:03:25.138Z,10.85
2023-03-07T14:08:23.017Z,12.32
2023-03-07T14:10:50.001Z,10.73
2023-03-07T14:13:26.771Z,12.52
2023-03-07T14:15:57.042Z,11.60
2023-03-07T14:18:31.070Z,12.82
2023-03-07T14:20:57.654Z,10.02
2023-03-07T14:23:24.371Z,8.57
2023-03-07T14:26:11.869Z,11.70
2023-03-07T14:28:47.024Z,11.95
2023-03-07T14:31:20.271Z,10.30
2023-03-07T14:33:47.007Z,12.20
2023-03-07T14:36:16.584Z,12.48
2023-03-07T14:38:44.189Z,10.38
2023-03-07T14:41:23.069Z,11.00
2023-03-07T14:44:12.308Z,8.20
2023-03-07T14:46:38.927Z,10.00
2023-03-07T14:49:23.947Z,10.77
2023-03-07T14:51:50.644Z,10.30
2023-03-07T14:54:19.630Z,9.63
2023-03-07T14:56:46.465Z,8.10
2023-03-07T14:59:25.889Z,10.85
2023-03-07T15:01:54.608Z,8.60
2023-03-07T15:04:23.086Z,11.32
2023-03-07T15:06:53.727Z,9.93
2023-03-07T15:09:20.837Z,8.45
2023-03-07T15:11:53.324Z,10.57
2023-03-07T15:14:19.864Z,9.13
2023-03-07T15:16:48.251Z,9.63
2023-03-07T15:19:19.340Z,9.77
2023-03-07T15:21:56.437Z,9.07
2023-03-07T15:24:43.227Z,8.82
2023-03-07T15:27:12.433Z,10.70
2023-03-07T15:29:43.937Z,8.30
2023-03-07T15:32:29.258Z,10.23
2023-03-07T15:35:00.291Z,9.15
2023-03-07T15:37:27.932Z,13.85
2023-03-07T15:39:55.900Z,9.65
2023-03-07T15:42:22.644Z,14.75
2023-03-07T15:44:55.013Z,8.65
2023-03-07T15:47:22.416Z,10.75
2023-03-07T15:49:50.313Z,8.80
2023-03-07T15:52:28.868Z,9.43
2023-03-07T15:54:56.592Z,9.02
2023-03-07T15:57:28.605Z,10.02
2023-03-07T16:00:00.399Z,8.40
2023-03-07T16:05:16.168Z,9.60
2023-03-07T16:07:42.867Z,9.18
2023-03-07T16:10:09.540Z,7.55
2023-03-07T16:12:37.492Z,8.65
2023-03-07T16:15:04.389Z,10.82
2023-03-07T16:17:33.940Z,10.25
2023-03-07T16:20:00.544Z,7.47
2023-03-07T16:22:27.177Z,9.90
2023-03-07T16:24:53.706Z,7.88
2023-03-07T16:27:21.458Z,7.68
2023-03-07T16:29:53.549Z,7.85
2023-03-07T16:32:20.988Z,8.05
2023-03-07T16:34:48.771Z,9.43
2023-03-07T16:37:15.422Z,12.05
2023-03-07T16:39:42.083Z,9.07
2023-03-07T16:42:16.195Z,11.27
2023-03-07T16:44:42.652Z,12.35
2023-03-07T16:47:16.571Z,10.38
2023-03-07T16:49:43.756Z,9.10
2023-03-07T16:52:12.068Z,12.90
2023-03-07T16:54:38.930Z,11.55
2023-03-07T16:57:06.899Z,11.13
2023-03-07T16:59:35.023Z,9.48
2023-03-07T17:02:01.947Z,10.57
2023-03-07T17:04:28.690Z,12.00
2023-03-07T17:07:04.277Z,9.80
2023-03-07T17:09:31.043Z,11.10
2023-03-07T17:11:58.299Z,10.82
2023-03-07T17:14:24.782Z,10.18
2023-03-07T17:16:51.393Z,9.95
2023-03-07T17:19:25.895Z,9.07
2023-03-07T17:21:52.466Z,13.03
2023-03-07T17:24:18.956Z,13.68
2023-03-07T17:26:46.203Z,10.75
2023-03-07T17:29:20.511Z,11.90
2023-03-07T17:31:47.574Z,10.67
2023-03-07T17:34:19.442Z,9.77
2023-03-07T17:36:45.889Z,12.52
2023-03-07T17:39:12.882Z,9.98
2023-03-07T17:41:39.570Z,12.48
2023-03-07T17:44:06.188Z,10.25
2023-03-07T17:46:32.691Z,11.77
2023-03-07T17:48:59.354Z,10.55
2023-03-07T17:51:26.226Z,12.18
2023-03-07T17:53:52.643Z,15.00
2023-03-07T17:56:20.466Z,11.48
2023-03-07T17:58:47.044Z,15.40
2023-03-07T18:01:15.108Z,13.05
2023-03-07T18:03:42.419Z,13.63
2023-03-07T18:06:09.326Z,11.10
2023-03-07T18:08:37.084Z,21.63
2023-03-07T18:11:04.574Z,11.93
2023-03-07T18:13:31.090Z,13.63
2023-03-07T18:15:58.274Z,13.77
2023-03-07T18:18:24.889Z,14.88
2023-03-07T18:20:58.228Z,10.65
2023-03-07T18:23:24.787Z,13.25
2023-03-07T18:25:58.200Z,13.40
2023-03-07T18:28:26.054Z,13.77
2023-03-07T18:30:59.884Z,14.60
2023-03-07T18:33:28.301Z,12.73
2023-03-07T18:35:56.607Z,11.15
2023-03-07T18:38:23.568Z,11.13
2023-03-07T18:40:53.234Z,12.15
2023-03-07T18:43:21.620Z,10.30
2023-03-07T18:45:48.543Z,15.07
2023-03-07T18:48:15.246Z,13.95
2023-03-07T18:50:41.754Z,15.40
2023-03-07T18:53:08.507Z,13.55
2023-03-07T18:55:37.414Z,12.73
2023-03-07T18:58:03.961Z,14.18
2023-03-07T19:00:30.770Z,12.93
2023-03-07T19:02:57.388Z,11.95
2023-03-07T19:05:23.807Z,12.93
2023-03-07T19:07:50.529Z,11.32
2023-03-07T19:10:17.168Z,13.23
2023-03-07T19:12:44.298Z,14.43
2023-03-07T19:15:11.284Z,14.57
2023-03-07T19:17:38.319Z,14.50
2023-03-07T19:20:04.948Z,17.58
2023-03-07T19:22:31.765Z,14.75
2023-03-07T19:24:58.186Z,18.45
2023-03-07T19:27:24.971Z,18.40
2023-03-07T19:29:53.281Z,22.58
2023-03-07T19:32:19.973Z,15.32
2023-03-07T19:34:48.521Z,17.10
2023-03-07T19:37:14.985Z,21.33
2023-03-07T19:39:41.513Z,18.95
2023-03-07T19:42:08.231Z,19.92
2023-03-07T19:44:34.701Z,19.80
2023-03-07T19:47:01.173Z,21.50
2023-03-07T19:49:27.741Z,21.40
2023-03-07T19:51:54.381Z,23.38
2023-03-07T19:54:22.505Z,23.23
2023-03-07T19:56:51.597Z,24.08
2023-03-07T19:59:18.382Z,26.50
2023-03-07T20:01:45.262Z,26.35
2023-03-07T20:04:13.084Z,27.20
2023-03-07T20:06:40.017Z,22.77
2023-03-07T20:09:06.486Z,21.48
2023-03-07T20:11:33.896Z,21.52
2023-03-07T20:14:01.197Z,18.60
2023-03-07T20:16:29.263Z,20.75
2023-03-07T20:18:57.273Z,23.63
2023-03-07T20:21:27.766Z,23.52
2023-03-07T20:23:55.656Z,24.52
2023-03-07T20:26:26.802Z,24.95
2023-03-07T20:28:54.462Z,17.83
2023-03-07T20:31:22.075Z,21.75
2023-03-07T20:33:49.068Z,21.55
2023-03-07T20:36:16.813Z,21.63
2023-03-07T20:38:43.238Z,20.00
2023-03-07T20:41:14.043Z,19.60
2023-03-07T20:43:40.832Z,23.15
2023-03-07T20:46:11.606Z,20.20
2023-03-07T20:48:39.758Z,16.63
2023-03-07T20:51:06.346Z,20.08
2023-03-07T20:53:33.628Z,19.80
2023-03-07T20:56:01.201Z,21.63
2023-03-07T20:58:29.700Z,17.75
2023-03-07T21:00:57.002Z,17.35
2023-03-07T21:03:24.106Z,13.90
2023-03-07T21:06:00.561Z,17.08
2023-03-07T21:08:29.055Z,14.15
2023-03-07T21:11:06.144Z,12.43
2023-03-07T21:13:34.919Z,12.98
2023-03-07T21:16:21.804Z,11.43
2023-03-07T21:18:48.885Z,11.38
2023-03-07T21:21:19.338Z,9.35
2023-03-07T21:23:46.250Z,9.43
2023-03-07T21:26:14.142Z,9.30
2023-03-07T21:28:40.783Z,6.82
2023-03-07T21:31:08.556Z,7.85
2023-03-07T21:33:35.553Z,8.18
2023-03-07T21:36:02.548Z,7.88
2023-03-07T21:38:29.345Z,5.00
2023-03-07T21:40:56.306Z,5.80
2023-03-07T21:43:23.124Z,3.95
2023-03-07T21:45:50.002Z,4.75
2023-03-07T21:48:19.491Z,4.65
2023-03-07T21:50:46.750Z,4.85
2023-03-07T21:53:13.530Z,3.53
2023-03-07T21:55:40.103Z,4.68
2023-03-07T21:58:06.973Z,2.75
2023-03-07T22:00:33.447Z,4.03
2023-03-07T22:02:59.929Z,3.85
2023-03-07T22:05:26.573Z,3.15
2023-03-07T22:07:53.032Z,3.03
2023-03-07T22:10:19.692Z,3.05
2023-03-07T22:12:46.380Z,3.38
2023-03-07T22:15:12.884Z,6.07
2023-03-07T22:17:39.358Z,2.95
2023-03-07T22:20:06.143Z,3.40
2023-03-07T22:22:32.607Z,3.60
2023-03-07T22:24:59.168Z,4.50
2023-03-07T22:27:25.733Z,6.95
2023-03-07T22:29:52.272Z,5.90
2023-03-07T22:32:18.766Z,5.68
2023-03-07T22:34:45.359Z,7.35
2023-03-07T22:37:11.813Z,6.30
2023-03-07T22:39:38.319Z,7.10
2023-03-07T22:42:04.936Z,8.30
2023-03-07T22:44:31.549Z,7.07
2023-03-07T22:46:58.021Z,6.32
2023-03-07T22:49:24.543Z,6.55
2023-03-07T22:51:51.014Z,7.03
2023-03-07T22:54:17.490Z,7.13
2023-03-07T22:56:44.105Z,7.95
2023-03-07T22:59:11.000Z,6.90
2023-03-07T23:01:37.688Z,6.32
2023-03-07T23:04:05.571Z,7.20
2023-03-07T23:06:32.654Z,5.95
2023-03-07T23:09:02.318Z,8.25
2023-03-07T23:11:30.060Z,6.38
2023-03-07T23:13:56.715Z,6.13
2023-03-07T23:16:26.411Z,5.00
2023-03-07T23:18:55.092Z,5.38
2023-03-07T23:21:22.607Z,6.13
2023-03-07T23:23:50.045Z,6.15
2023-03-07T23:26:18.284Z,5.10
2023-03-07T23:28:44.819Z,6.80
2023-03-07T23:31:24.862Z,5.65
2023-03-07T23:33:54.500Z,5.45
2023-03-07T23:36:21.470Z,6.10
2023-03-07T23:38:47.983Z,6.68
2023-03-07T23:41:14.563Z,6.50
2023-03-07T23:43:40.991Z,5.63
2023-03-07T23:46:07.609Z,6.85
2023-03-07T23:48:34.076Z,6.80
2023-03-07T23:51:00.676Z,6.22
2023-03-07T23:53:27.311Z,5.93
2023-03-07T23:55:53.880Z,6.68
2023-03-07T23:58:20.368Z,7.40
